createdAt,value
2019-04-20T00:00:58.529Z,11.45
2019-04-20T00:05:53.225Z,10.03
2019-04-20T00:10:58.040Z,12.80
2019-04-20T00:15:43.341Z,10.95
2019-04-20T00:20:40.737Z,12.53
2019-04-20T00:25:54.797Z,10.13
2019-04-20T00:31:04.228Z,12.97
2019-04-20T00:35:38.221Z,11.65
2019-04-20T00:40:32.702Z,14.13
2019-04-20T00:45:31.643Z,14.28
2019-04-20T00:50:34.333Z,13.27
2019-04-20T00:55:19.091Z,13.28
2019-04-20T01:00:35.631Z,10.93
2019-04-20T01:05:43.248Z,12.65
2019-04-20T01:10:23.677Z,11.22
2019-04-20T01:15:30.160Z,10.50
2019-04-20T01:20:14.074Z,11.20
2019-04-20T01:25:16.657Z,10.90
2019-04-20T01:30:17.413Z,11.60
2019-04-20T01:35:22.723Z,14.63
2019-04-20T01:40:03.954Z,13.47
2019-04-20T01:44:57.369Z,16.43
2019-04-20T01:49:59.826Z,13.50
2019-04-20T01:55:11.465Z,13.50
2019-04-20T01:59:59.420Z,15.03
2019-04-20T02:04:48.734Z,13.80
2019-04-20T02:09:48.610Z,12.20
2019-04-20T02:14:43.672Z,16.83
2019-04-20T02:19:52.629Z,15.00
2019-04-20T02:24:29.966Z,15.73
2019-04-20T02:29:48.880Z,17.02
2019-04-20T02:34:59.282Z,15.67
2019-04-20T02:45:10.552Z,16.60
2019-04-20T02:50:14.988Z,14.97
2019-04-20T02:54:53.655Z,19.10
2019-04-20T03:00:01.048Z,18.03
2019-04-20T03:04:28.088Z,17.20
2019-04-20T03:09:32.531Z,14.37
2019-04-20T03:14:21.757Z,17.83
2019-04-20T03:19:18.690Z,14.60
2019-04-20T03:24:26.716Z,18.70
2019-04-20T03:29:11.642Z,16.10
2019-04-20T03:34:38.247Z,19.00
2019-04-20T03:39:03.703Z,16.57
2019-04-20T03:43:43.560Z,17.57
2019-04-20T03:48:54.842Z,15.00
2019-04-20T03:54:12.168Z,16.13
2019-04-20T03:59:19.505Z,19.60
2019-04-20T04:04:27.184Z,17.83
2019-04-20T04:09:15.040Z,19.30
2019-04-20T04:13:56.574Z,16.47
2019-04-20T04:19:02.493Z,17.90
2019-04-20T04:24:02.183Z,20.90
2019-04-20T04:29:08.321Z,20.33
2019-04-20T04:33:59.703Z,16.27
2019-04-20T04:39:03.883Z,15.40
2019-04-20T04:43:49.823Z,18.17
2019-04-20T04:48:34.444Z,17.63
2019-04-20T04:53:36.725Z,15.27
2019-04-20T04:58:19.665Z,17.57
2019-04-20T05:03:28.175Z,17.27
2019-04-20T05:08:21.234Z,17.97
2019-04-20T05:13:07.148Z,19.30
2019-04-20T05:18:20.668Z,17.40
2019-04-20T05:23:17.602Z,15.13
2019-04-20T05:28:32.309Z,17.77
2019-04-20T05:33:25.468Z,17.53
2019-04-20T05:38:39.257Z,22.17
2019-04-20T05:43:30.531Z,19.47
2019-04-20T05:48:20.529Z,18.07
2019-04-20T05:53:30.566Z,19.97
2019-04-20T05:58:24.615Z,18.57
2019-04-20T06:03:12.987Z,18.17
2019-04-20T06:08:20.399Z,17.50
2019-04-20T06:13:14.751Z,16.48
2019-04-20T06:18:16.339Z,15.63
2019-04-20T06:23:33.261Z,15.87
2019-04-20T06:28:22.023Z,17.25
2019-04-20T06:34:19.627Z,18.77
2019-04-20T06:39:06.334Z,18.33
2019-04-20T06:43:57.885Z,16.17
2019-04-20T06:48:51.606Z,16.63
2019-04-20T06:53:46.850Z,17.70
2019-04-20T06:58:43.499Z,20.77
2019-04-20T07:08:53.194Z,16.02
2019-04-20T07:13:22.091Z,13.05
2019-04-20T07:18:31.162Z,14.28
2019-04-20T07:28:24.264Z,13.60
2019-04-20T07:33:15.711Z,13.28
2019-04-20T07:38:27.909Z,14.58
2019-04-20T07:43:02.849Z,12.88
2019-04-20T07:48:07.043Z,13.20
2019-04-20T07:52:46.266Z,11.85
2019-04-20T07:57:48.855Z,10.72
2019-04-20T08:03:13.057Z,12.90
2019-04-20T08:07:53.366Z,11.95
2019-04-20T08:13:02.317Z,10.35
2019-04-20T08:18:02.988Z,12.33
2019-04-20T08:22:53.487Z,13.15
2019-04-20T08:27:29.744Z,11.38
2019-04-20T08:32:59.531Z,12.85
2019-04-20T08:38:14.863Z,14.30
2019-04-20T08:43:03.542Z,10.00
2019-04-20T08:47:57.154Z,11.88
2019-04-20T08:57:22.603Z,10.85
2019-04-20T09:02:18.743Z,11.57
2019-04-20T09:07:19.552Z,14.33
2019-04-20T09:12:24.406Z,10.35
2019-04-20T09:17:23.088Z,10.28
2019-04-20T09:22:42.854Z,10.50
2019-04-20T09:27:36.241Z,9.63
2019-04-20T09:32:39.677Z,10.45
2019-04-20T09:37:43.064Z,8.28
2019-04-20T09:42:19.578Z,10.85
2019-04-20T09:47:14.151Z,12.33
2019-04-20T09:52:21.261Z,9.38
2019-04-20T09:57:25.451Z,9.65
2019-04-20T10:02:13.744Z,9.13
2019-04-20T10:07:07.751Z,10.98
2019-04-20T10:11:59.293Z,9.10
2019-04-20T10:16:53.856Z,7.92
2019-04-20T10:21:48.668Z,8.35
2019-04-20T10:26:42.841Z,12.90
2019-04-20T10:31:42.788Z,10.00
2019-04-20T10:36:43.832Z,7.90
2019-04-20T10:41:46.988Z,6.75
2019-04-20T10:46:35.071Z,7.53
2019-04-20T10:51:29.833Z,9.50
2019-04-20T10:56:25.316Z,7.28
2019-04-20T11:01:19.913Z,9.53
2019-04-20T11:06:14.508Z,7.40
2019-04-20T11:11:14.636Z,11.75
2019-04-20T11:16:04.548Z,7.30
2019-04-20T11:20:59.433Z,8.50
2019-04-20T11:25:53.527Z,8.08
2019-04-20T11:30:48.077Z,8.08
2019-04-20T11:35:43.695Z,7.08
2019-04-20T11:40:39.161Z,8.23
2019-04-20T11:45:33.222Z,5.70
2019-04-20T11:50:27.830Z,8.70
2019-04-20T11:55:22.410Z,8.63
2019-04-20T12:00:25.217Z,8.05
2019-04-20T12:05:32.419Z,8.53
2019-04-20T12:10:22.301Z,8.80
2019-04-20T12:15:14.834Z,5.75
2019-04-20T12:20:10.096Z,9.43
2019-04-20T12:25:05.946Z,8.75
2019-04-20T12:30:00.046Z,7.22
2019-04-20T12:34:54.147Z,7.60
2019-04-20T12:39:49.201Z,6.37
2019-04-20T12:44:43.808Z,8.95
2019-04-20T12:49:37.955Z,10.35
2019-04-20T12:54:32.323Z,6.70
2019-04-20T12:59:27.553Z,6.87
2019-04-20T13:04:22.662Z,8.10
2019-04-20T13:09:16.910Z,8.45
2019-04-20T13:14:44.428Z,9.03
2019-04-20T13:19:39.460Z,9.70
2019-04-20T13:24:34.682Z,7.97
2019-04-20T13:29:29.052Z,9.45
2019-04-20T13:34:24.391Z,8.90
2019-04-20T13:39:19.635Z,8.18
2019-04-20T13:44:13.915Z,11.25
2019-04-20T13:49:09.303Z,11.80
2019-04-20T13:54:06.276Z,9.88
2019-04-20T13:59:01.826Z,9.38
2019-04-20T14:04:16.794Z,11.12
2019-04-20T14:09:11.828Z,19.80
2019-04-20T14:14:08.282Z,15.83
2019-04-20T14:19:02.973Z,7.72
2019-04-20T14:23:57.219Z,8.45
2019-04-20T14:28:51.483Z,8.18
2019-04-20T14:33:46.748Z,10.00
2019-04-20T14:38:43.745Z,10.23
2019-04-20T14:43:38.111Z,10.48
2019-04-20T14:48:34.369Z,10.32
2019-04-20T14:53:29.490Z,9.55
2019-04-20T14:58:39.426Z,10.75
2019-04-20T15:03:37.326Z,9.25
2019-04-20T15:08:32.474Z,7.53
2019-04-20T15:13:26.790Z,8.70
2019-04-20T15:18:23.764Z,11.40
2019-04-20T15:23:19.906Z,7.40
2019-04-20T15:28:14.543Z,11.53
2019-04-20T15:33:09.237Z,7.97
2019-04-20T15:38:04.995Z,11.08
2019-04-20T15:43:08.292Z,8.40
2019-04-20T15:47:56.299Z,7.90
2019-04-20T15:52:52.704Z,10.68
2019-04-20T15:57:46.525Z,9.00
2019-04-20T16:03:01.177Z,10.08
2019-04-20T16:08:00.198Z,8.73
2019-04-20T16:13:04.587Z,7.78
2019-04-20T16:17:51.286Z,12.40
2019-04-20T16:22:44.795Z,9.83
2019-04-20T16:27:38.953Z,8.43
2019-04-20T16:32:34.279Z,10.18
2019-04-20T16:37:28.642Z,10.68
2019-04-20T16:42:22.745Z,9.90
2019-04-20T16:47:16.847Z,9.30
2019-04-20T16:52:10.914Z,9.80
2019-04-20T16:57:07.707Z,9.33
2019-04-20T17:02:00.835Z,10.85
2019-04-20T17:07:16.380Z,13.78
2019-04-20T17:12:12.060Z,14.35
2019-04-20T17:17:07.409Z,10.63
2019-04-20T17:22:03.460Z,13.15
2019-04-20T17:27:19.134Z,20.12
2019-04-20T17:32:15.878Z,12.53
2019-04-20T17:37:10.651Z,12.75
2019-04-20T17:42:22.234Z,18.27
2019-04-20T17:47:22.446Z,13.53
2019-04-20T17:52:21.903Z,17.05
2019-04-20T17:56:54.320Z,19.48
2019-04-20T18:02:11.820Z,16.90
2019-04-20T18:07:10.618Z,16.05
2019-04-20T18:11:56.410Z,16.55
2019-04-20T18:17:19.255Z,14.55
2019-04-20T18:22:07.680Z,15.08
2019-04-20T18:27:26.401Z,19.17
2019-04-20T18:32:09.337Z,19.62
2019-04-20T18:37:07.746Z,19.92
2019-04-20T18:42:12.215Z,17.95
2019-04-20T18:47:21.644Z,17.48
2019-04-20T18:51:53.573Z,16.52
2019-04-20T18:56:50.900Z,19.98
2019-04-20T19:01:45.471Z,20.48
2019-04-20T19:06:39.882Z,19.70
2019-04-20T19:11:37.514Z,19.82
2019-04-20T19:16:46.648Z,20.48
2019-04-20T19:21:29.052Z,23.42
2019-04-20T19:26:23.865Z,23.02
2019-04-20T19:31:39.735Z,22.67
2019-04-20T19:36:27.993Z,26.93
2019-04-20T19:41:26.634Z,23.73
2019-04-20T19:46:39.623Z,25.88
2019-04-20T19:51:25.520Z,23.30
2019-04-20T19:56:10.769Z,21.70
2019-04-20T20:00:57.787Z,19.57
2019-04-20T20:05:54.151Z,19.17
2019-04-20T20:10:50.481Z,20.70
2019-04-20T20:15:45.541Z,18.85
2019-04-20T20:20:59.508Z,18.50
2019-04-20T20:25:42.365Z,21.45
2019-04-20T20:30:48.096Z,19.50
2019-04-20T20:35:32.532Z,21.52
2019-04-20T20:40:31.135Z,20.75
2019-04-20T20:45:31.525Z,19.20
2019-04-20T20:50:36.433Z,23.40
2019-04-20T20:55:25.533Z,21.37
2019-04-20T21:00:24.062Z,22.87
2019-04-20T21:05:06.914Z,22.55
2019-04-20T21:10:00.970Z,24.95
2019-04-20T21:14:55.235Z,21.30
2019-04-20T21:20:06.385Z,22.93
2019-04-20T21:24:50.095Z,22.07
2019-04-20T21:29:49.265Z,22.02
2019-04-20T21:34:43.296Z,19.35
2019-04-20T21:39:44.188Z,23.85
2019-04-20T21:44:37.490Z,22.70
2019-04-20T21:49:43.642Z,22.37
2019-04-20T21:54:25.310Z,21.42
2019-04-20T21:59:27.276Z,19.15
2019-04-20T22:04:16.337Z,23.27
2019-04-20T22:09:12.706Z,21.70
2019-04-20T22:14:11.472Z,17.60
2019-04-20T22:19:16.213Z,21.07
2019-04-20T22:24:09.498Z,25.62
2019-04-20T22:28:56.313Z,19.45
2019-04-20T22:33:50.644Z,21.50
2019-04-20T22:39:01.280Z,19.60
2019-04-20T22:43:54.790Z,19.45
2019-04-20T22:48:59.406Z,20.82
2019-04-20T22:53:56.353Z,21.45
2019-04-20T22:58:52.774Z,20.82
2019-04-20T23:03:37.204Z,24.47
2019-04-20T23:08:31.156Z,22.02
2019-04-20T23:13:29.512Z,21.73
2019-04-20T23:18:22.426Z,22.70
2019-04-20T23:23:21.139Z,28.60
2019-04-20T23:28:16.758Z,21.50
2019-04-20T23:33:09.660Z,21.80
2019-04-20T23:38:11.217Z,23.62
2019-04-20T23:43:17.692Z,24.75
2019-04-20T23:48:23.658Z,21.55
2019-04-20T23:53:33.832Z,24.05
2019-04-20T23:58:14.394Z,24.37
